Riverside Municipal Airport
KRAL : now visible

Airfield :











YOU CAN JOIN US ON...

 
LOGIN :

Register | Disclaimer

   EN    FR    IT 

 









Legend :    VFR   Marginal VFR   IFR   Intensive IFR   Very Intensive IFR
Visi :
Ceiling :
>= 8 km
>= 3000ft
5 to 8 km
1000 to 3000 ft
1500m to 5 km
500 to 1000 ft
800 to 1500m
200 to 500 ft
< 800m
< 200 ft
Symbols :   Thunderstorms  Fog  Heavy snow  Heavy precipitations  Wind > 20 kt







- Airport Elevation : 819 ft


KRAL - Riverside Municipal

CURRENT METAR :
  • 202053Z 29006KT 4SM RA BKN041 OVC055 15/11 A3000 RMK AO2 RAB34 SLP149 P0000 60000 T01500106 58019

EXPIRED METARs :
  • 201953Z VRB03KT 10SM BKN039 BKN055 17/07 A3002 RMK AO2 LTG DSNT S SLP154 T01670072
  • 201853Z 00000KT 10SM BKN038 BKN055 16/06 A3004 RMK AO2 SLP162 T01610061

TAF N/A
KZLA FIR / North America



MET'MAP, your aeronautical weather chart ! - Copyright ORBIFLY December 2007 - Disclaimer

ORBIFLY MET'MAP TEAM :

Programming & Development : Alexandra Zaïnal
Concept & Development : Baudouin d'Aumeries
Co-Development & Prog : Marc-Olivier Méhu
Technical & hardware support : Manuel Goepfert

Contact : metmap@orbifly.com




SOURCES & CREDITS :

   NOAA       Earth
Advisory